Time;durP1;ratioP1;P1;durP2;ratioP2;P2;SDS_P1;SDS_P2;PMS_P1;PMS_P2;Temp;Humidity;BMP_temperature;BMP_pressure;BME280_temperature;BME280_humidity;BME280_pressure;Samples;Min_cycle;Max_cycle;Signal;HPM_P1;HPM_P2
2023/08/25 00:09:45;;;;;;;4.20;1.90;;;24.30;99.90;;;;;;20921093;28;20268;-70
2023/08/25 00:19:47;;;;;;;3.10;1.98;;;24.30;99.90;;;;;;20936876;28;20600;-70
2023/08/25 00:29:50;;;;;;;5.68;2.22;;;;;;;;;;20936665;28;20256;-70
2023/08/25 00:39:53;;;;;;;2.28;1.60;;;;;;;;;;20942613;28;20290;-70
2023/08/25 00:49:55;;;;;;;4.03;2.10;;;;;;;;;;20991424;28;20590;-70
2023/08/25 00:59:58;;;;;;;2.28;1.60;;;;;;;;;;20934192;28;20210;-70
2023/08/25 01:10:00;;;;;;;2.63;1.67;;;;;;;;;;20950476;28;20757;-70
2023/08/25 01:20:08;;;;;;;1.85;1.30;;;;;;;;;;20949230;28;20703;-70
2023/08/25 01:30:11;;;;;;;2.33;1.15;;;;;;;;;;20948845;28;20303;-70
2023/08/25 01:40:21;;;;;;;3.50;1.60;;;24.10;99.90;;;;;;20926000;28;20226;-70
2023/08/25 01:50:23;;;;;;;2.00;1.30;;;;;;;;;;20951373;28;20771;-70
2023/08/25 02:00:25;;;;;;;3.30;1.42;;;;;;;;;;20931775;28;20222;-70
2023/08/25 02:10:27;;;;;;;2.63;1.33;;;;;;;;;;20947991;28;20248;-70
2023/08/25 02:20:29;;;;;;;2.10;1.30;;;;;;;;;;20931194;28;20223;-71
2023/08/25 02:30:30;;;;;;;1.80;1.23;;;;;;;;;;20923875;28;20292;-70
2023/08/25 02:40:33;;;;;;;2.20;1.50;;;22.10;99.90;;;;;;20957568;28;20230;-70
2023/08/25 02:50:35;;;;;;;2.00;1.50;;;;;;;;;;20950366;28;20225;-70
2023/08/25 03:00:37;;;;;;;2.33;1.60;;;;;;;;;;20943552;28;20224;-71
2023/08/25 03:10:38;;;;;;;2.40;1.40;;;;;;;;;;20927046;28;20772;-70
2023/08/25 03:20:40;;;;;;;3.45;1.48;;;;;;;;;;20925854;28;20226;-70
2023/08/25 03:30:43;;;;;;;2.25;1.52;;;;;;;;;;20925826;28;20701;-70
2023/08/25 03:40:44;;;;;;;2.10;1.48;;;;;;;;;;20953346;28;20226;-70
2023/08/25 03:50:47;;;;;;;1.90;1.40;;;;;;;;;;20982079;22;20283;-70
2023/08/25 04:00:54;;;;;;;2.17;1.35;;;;;;;;;;21038799;28;20268;-70
2023/08/25 04:10:56;;;;;;;2.03;1.33;;;;;;;;;;21021301;28;20221;-70
2023/08/25 04:20:58;;;;;;;2.15;1.50;;;;;;;;;;21020402;28;20754;-70
2023/08/25 04:30:59;;;;;;;2.85;1.90;;;;;;;;;;20942599;28;20228;-70
2023/08/25 04:41:07;;;;;;;2.67;1.40;;;;;;;;;;20943316;28;20602;-70
2023/08/25 04:51:09;;;;;;;4.65;2.15;;;;;;;;;;20959805;28;20647;-68
2023/08/25 05:01:11;;;;;;;3.13;1.92;;;;;;;;;;21011259;28;20225;-71
2023/08/25 05:11:13;;;;;;;2.72;1.65;;;;;;;;;;21018817;28;20219;-70
2023/08/25 05:21:15;;;;;;;2.33;1.45;;;;;;;;;;20922343;28;20299;-70
2023/08/25 05:31:19;;;;;;;1.75;1.23;;;;;;;;;;20926637;28;20267;-70
2023/08/25 05:41:41;;;;;;;2.08;1.30;;;;;;;;;;20948084;28;20296;-70
2023/08/25 05:51:43;;;;;;;2.78;0.95;;;;;;;;;;20970542;28;20704;-70
2023/08/25 06:01:45;;;;;;;1.50;0.90;;;;;;;;;;20936761;28;20286;-71
2023/08/25 06:11:46;;;;;;;2.38;0.85;;;;;;;;;;20948304;28;20248;-71
2023/08/25 06:21:50;;;;;;;2.22;0.77;;;;;;;;;;20947482;28;20596;-71
2023/08/25 06:31:52;;;;;;;1.55;0.80;;;;;;;;;;20962769;28;20297;-70
2023/08/25 06:41:54;;;;;;;2.15;0.90;;;;;;;;;;20957039;28;20237;-71
2023/08/25 06:51:56;;;;;;;4.32;1.08;;;;;;;;;;20964491;28;20287;-70
2023/08/25 07:01:58;;;;;;;1.90;1.00;;;;;;;;;;20979221;28;20233;-70
2023/08/25 07:12:00;;;;;;;2.00;1.10;;;;;;;;;;20983510;28;20228;-71
2023/08/25 07:22:02;;;;;;;1.55;1.00;;;;;;;;;;20943294;28;20299;-71
2023/08/25 07:32:04;;;;;;;2.25;1.33;;;;;;;;;;20956225;28;20221;-70
2023/08/25 07:42:06;;;;;;;1.60;0.90;;;;;;;;;;20953395;28;20238;-71
2023/08/25 07:52:08;;;;;;;2.67;1.10;;;;;;;;;;20959546;22;20267;-70
2023/08/25 08:02:11;;;;;;;2.13;1.10;;;;;;;;;;20924514;28;20248;-70
2023/08/25 08:12:13;;;;;;;2.13;1.05;;;;;;;;;;20911428;28;20273;-70
2023/08/25 08:22:17;;;;;;;2.83;1.10;;;22.40;99.90;;;;;;20933706;28;20251;-71
2023/08/25 08:32:19;;;;;;;1.52;0.80;;;;;;;;;;20933176;28;20586;-70
2023/08/25 08:42:20;;;;;;;1.30;0.88;;;22.90;99.90;;;;;;20945566;28;20365;-71
2023/08/25 08:52:22;;;;;;;0.98;0.75;;;;;;;;;;20930769;28;20291;-70
2023/08/25 09:02:27;;;;;;;1.45;0.57;;;;;;;;;;20925435;28;20278;-71
2023/08/25 09:12:29;;;;;;;2.75;0.82;;;;;;;;;;20911745;28;20269;-71
2023/08/25 09:22:31;;;;;;;0.95;0.73;;;;;;;;;;20943604;28;20288;-70
2023/08/25 09:32:35;;;;;;;1.83;0.80;;;;;;;;;;20926130;28;20775;-68
2023/08/25 09:42:37;;;;;;;0.65;0.55;;;;;;;;;;20953782;28;20630;-69
2023/08/25 09:52:40;;;;;;;0.98;0.50;;;;;;;;;;20933111;22;20279;-70
2023/08/25 10:02:42;;;;;;;0.80;0.50;;;;;;;;;;20918940;28;20229;-71
2023/08/25 10:12:45;;;;;;;1.65;0.80;;;23.30;99.90;;;;;;20863554;28;20272;-70
2023/08/25 10:22:49;;;;;;;1.52;0.55;;;23.50;99.90;;;;;;20867475;28;20303;-70
2023/08/25 10:33:10;;;;;;;1.05;0.70;;;;;;;;;;20783262;28;20270;-70
2023/08/25 10:43:12;;;;;;;1.90;0.80;;;;;;;;;;20811323;28;20243;-68
2023/08/25 10:53:33;;;;;;;0.95;0.63;;;;;;;;;;20819633;28;20291;-69
2023/08/25 11:03:53;;;;;;;0.95;0.70;;;;;;;;;;20795700;28;20222;-69
2023/08/25 11:13:56;;;;;;;0.88;0.70;;;;;;;;;;20778514;28;20215;-69
2023/08/25 11:23:59;;;;;;;1.13;0.68;;;;;;;;;;20777886;28;20332;-71
2023/08/25 11:34:01;;;;;;;1.30;0.85;;;;;;;;;;20793203;28;20230;-70
2023/08/25 11:44:03;;;;;;;1.33;0.93;;;;;;;;;;20819836;28;20273;-69
2023/08/25 11:54:05;;;;;;;2.35;0.95;;;;;;;;;;20789840;28;20299;-70
2023/08/25 12:04:26;;;;;;;2.78;1.60;;;;;;;;;;20787755;28;20219;-74
2023/08/25 12:14:29;;;;;;;6.63;3.33;;;24.40;99.90;;;;;;20789795;28;20667;-70
2023/08/25 12:24:31;;;;;;;2.95;1.50;;;;;;;;;;20772924;28;20556;-70
2023/08/25 12:34:33;;;;;;;1.65;1.10;;;;;;;;;;20804551;28;20633;-70
2023/08/25 12:44:35;;;;;;;2.38;1.20;;;;;;;;;;20830654;28;20285;-70
2023/08/25 12:54:37;;;;;;;2.10;1.30;;;;;;;;;;20773667;28;20296;-70
2023/08/25 13:04:39;;;;;;;3.25;1.15;;;;;;;;;;20769848;28;20229;-70
2023/08/25 13:14:41;;;;;;;1.45;1.10;;;;;;;;;;20785021;28;20238;-70
2023/08/25 13:24:43;;;;;;;1.45;0.80;;;;;;;;;;20768283;28;20251;-70
2023/08/25 13:34:45;;;;;;;2.97;0.90;;;;;;;;;;20768148;28;20688;-70
2023/08/25 13:44:47;;;;;;;1.05;0.80;;;;;;;;;;20810952;28;20228;-70
2023/08/25 13:54:49;;;;;;;1.48;0.77;;;;;;;;;;20769916;28;20224;-70
2023/08/25 14:04:51;;;;;;;2.38;1.15;;;;;;;;;;20766778;28;20279;-70
2023/08/25 14:14:53;;;;;;;2.22;0.80;;;;;;;;;;20783193;28;20217;-70
2023/08/25 14:24:59;;;;;;;3.13;1.00;;;;;;;;;;20774484;28;20641;-70
2023/08/25 14:35:03;;;;;;;1.48;0.77;;;;;;;;;;20781678;28;20280;-70
2023/08/25 14:45:06;;;;;;;2.22;1.10;;;;;;;;;;20807954;28;20232;-72
2023/08/25 14:55:08;;;;;;;1.27;0.70;;;;;;;;;;20815415;28;20224;-70
2023/08/25 15:05:10;;;;;;;1.73;0.82;;;;;;;;;;20779237;28;20235;-70
2023/08/25 15:15:12;;;;;;;1.40;0.82;;;;;;;;;;20778665;28;20291;-70
2023/08/25 15:25:13;;;;;;;1.95;0.88;;;;;;;;;;20778126;28;20731;-70
2023/08/25 15:35:16;;;;;;;2.10;0.65;;;;;;;;;;20792027;28;20217;-69
2023/08/25 15:45:18;;;;;;;0.90;0.68;;;;;;;;;;20820177;28;20703;-70
2023/08/25 15:55:20;;;;;;;1.88;0.73;;;;;;;;;;20854452;22;20279;-71
2023/08/25 16:05:21;;;;;;;3.13;0.85;;;;;;;;;;20857230;28;20691;-70
2023/08/25 16:15:31;;;;;;;1.77;0.80;;;28.10;99.90;;;;;;20872143;28;20221;-70
2023/08/25 16:25:33;;;;;;;1.52;0.80;;;;;;;;;;20871156;28;20216;-70
2023/08/25 16:35:35;;;;;;;1.42;0.98;;;;;;;;;;20870738;28;20253;-71
2023/08/25 16:45:37;;;;;;;2.85;0.77;;;;;;;;;;20866415;28;20218;-70
2023/08/25 16:55:39;;;;;;;2.17;0.98;;;;;;;;;;20852664;28;20231;-70
2023/08/25 17:05:41;;;;;;;3.55;1.00;;;;;;;;;;20851900;28;20232;-70
2023/08/25 17:15:42;;;;;;;3.42;0.90;;;;;;;;;;20851122;28;20212;-70
2023/08/25 17:25:44;;;;;;;2.90;1.20;;;;;;;;;;20850963;28;20278;-69
2023/08/25 17:35:47;;;;;;;1.75;1.00;;;;;;;;;;20866736;28;20779;-70
2023/08/25 17:45:49;;;;;;;1.70;1.15;;;;;;;;;;20863748;28;20224;-70
2023/08/25 17:55:52;;;;;;;1.58;0.95;;;;;;;;;;20851454;28;20361;-72
2023/08/25 18:05:54;;;;;;;2.05;1.17;;;;;;;;;;20866832;28;20210;-72
2023/08/25 18:15:57;;;;;;;1.75;0.90;;;;;;;;;;20865473;28;20619;-71
2023/08/25 18:26:00;;;;;;;2.30;1.00;;;;;;;;;;20880342;28;20270;-71
2023/08/25 18:36:02;;;;;;;2.55;1.10;;;;;;;;;;20863451;28;20207;-71
2023/08/25 18:46:06;;;;;;;3.78;1.17;;;;;;;;;;20892200;28;20295;-73
2023/08/25 18:56:15;;;;;;;1.70;1.00;;;;;;;;;;20878675;28;20221;-73
2023/08/25 19:06:27;;;;;;;2.15;1.15;;;;;;;;;;20895997;28;20615;-71
2023/08/25 19:16:32;;;;;;;2.72;1.05;;;;;;;;;;20861799;28;20293;-71
2023/08/25 19:26:34;;;;;;;2.33;0.93;;;;;;;;;;20875854;28;20227;-72
2023/08/25 19:36:39;;;;;;;1.85;1.17;;;;;;;;;;20858877;28;20250;-72
2023/08/25 19:46:41;;;;;;;2.33;1.05;;;;;;;;;;20871681;28;20276;-71
2023/08/25 19:56:42;;;;;;;2.75;1.23;;;;;;;;;;20857304;28;20225;-72
2023/08/25 20:06:46;;;;;;;2.45;1.02;;;;;;;;;;20856159;28;20279;-72
2023/08/25 20:16:48;;;;;;;1.60;1.17;;;;;;;;;;20888625;28;20754;-71
2023/08/25 20:26:50;;;;;;;2.75;1.20;;;;;;;;;;20854305;28;20220;-72
2023/08/25 20:36:52;;;;;;;1.80;1.00;;;;;;;;;;20854746;28;20278;-72
2023/08/25 20:46:54;;;;;;;2.53;1.30;;;;;;;;;;20866879;28;20277;-72
2023/08/25 20:57:01;;;;;;;2.80;1.10;;;;;;;;;;20868588;28;20276;-71
2023/08/25 21:07:04;;;;;;;2.90;1.55;;;;;;;;;;20852107;28;20769;-71
2023/08/25 21:17:06;;;;;;;2.13;1.30;;;;;;;;;;20867809;28;20637;-71
2023/08/25 21:27:08;;;;;;;2.55;1.25;;;;;;;;;;20867870;28;20220;-71
2023/08/25 21:37:10;;;;;;;2.20;1.35;;;;;;;;;;20850331;28;20229;-71
2023/08/25 21:47:12;;;;;;;3.13;1.20;;;;;;;;;;20863795;28;20641;-70
2023/08/25 21:57:14;;;;;;;3.30;0.98;;;;;;;;;;20960745;22;20232;-69
2023/08/25 22:07:16;;;;;;;1.88;0.80;;;;;;;;;;20948278;28;20211;-72
2023/08/25 22:17:18;;;;;;;0.88;0.50;;;;;;;;;;20931546;28;20305;-71
2023/08/25 22:27:20;;;;;;;1.23;0.60;;;24.10;99.90;;;;;;20928253;28;20220;-71
2023/08/25 22:37:22;;;;;;;1.70;0.70;;;;;;;;;;20914827;28;20225;-72
2023/08/25 22:47:23;;;;;;;1.70;0.70;;;;;;;;;;20911481;28;20642;-72
2023/08/25 22:57:26;;;;;;;3.47;0.85;;;;;;;;;;20960055;28;20286;-72
2023/08/25 23:07:28;;;;;;;2.30;0.98;;;;;;;;;;20944045;28;20219;-72
2023/08/25 23:17:29;;;;;;;3.10;0.80;;;;;;;;;;20948792;28;20281;-71
2023/08/25 23:27:31;;;;;;;1.05;0.73;;;;;;;;;;20942184;28;20199;-71
2023/08/25 23:37:33;;;;;;;0.90;0.65;;;;;;;;;;20929391;28;20212;-71
2023/08/25 23:47:35;;;;;;;1.90;0.90;;;;;;;;;;20930902;28;20250;-71
2023/08/25 23:57:37;;;;;;;2.92;0.70;;;;;;;;;;20922179;28;20220;-71
